Time;durP1;ratioP1;P1;durP2;ratioP2;P2;SDS_P1;SDS_P2;PMS_P1;PMS_P2;Temp;Humidity;BMP_temperature;BMP_pressure;BME280_temperature;BME280_humidity;BME280_pressure;Samples;Min_cycle;Max_cycle;Signal;HPM_P1;HPM_P2
2023/02/13 00:01:31;;;;;;;25.77;20.30;;;11.60;99.90;;;;;;5053416;28;20256;-68
2023/02/13 00:03:58;;;;;;;30.23;21.10;;;11.60;99.90;;;;;;5037361;28;20579;-68
2023/02/13 00:06:24;;;;;;;26.40;20.23;;;11.60;99.90;;;;;;5053351;28;20779;-67
2023/02/13 00:08:50;;;;;;;23.70;18.57;;;11.60;99.90;;;;;;5051021;28;20492;-72
2023/02/13 00:11:16;;;;;;;25.40;19.50;;;11.60;99.90;;;;;;5034537;28;20179;-67
2023/02/13 00:13:41;;;;;;;26.33;19.13;;;11.60;99.90;;;;;;5028015;28;20213;-67
2023/02/13 00:16:08;;;;;;;27.83;18.73;;;11.60;99.90;;;;;;5042494;28;20439;-76
2023/02/13 00:18:36;;;;;;;25.40;19.00;;;11.60;99.90;;;;;;5036165;28;20213;-67
2023/02/13 00:21:11;;;;;;;25.93;19.10;;;11.60;99.90;;;;;;5053602;28;20440;-67
2023/02/13 00:23:38;;;;;;;21.27;18.20;;;11.60;99.90;;;;;;5052654;28;20428;-69
2023/02/13 00:26:09;;;;;;;27.83;19.50;;;11.60;99.90;;;;;;5054694;28;20441;-68
2023/02/13 00:28:35;;;;;;;24.67;18.97;;;11.60;99.90;;;;;;5052466;28;20485;-68
2023/02/13 00:31:13;;;;;;;24.97;19.00;;;11.60;99.90;;;;;;5040118;28;20438;-68
2023/02/13 00:33:38;;;;;;;24.20;17.90;;;11.60;99.90;;;;;;5048294;28;20792;-67
2023/02/13 00:36:07;;;;;;;19.63;16.90;;;11.50;99.90;;;;;;5048297;28;20432;-74
2023/02/13 00:38:33;;;;;;;16.00;13.67;;;11.50;99.90;;;;;;5049155;28;20205;-68
2023/02/13 00:40:59;;;;;;;15.90;12.37;;;11.40;99.90;;;;;;5051753;28;20463;-67
2023/02/13 00:43:25;;;;;;;15.47;12.83;;;11.40;99.90;;;;;;5053543;28;20439;-67
2023/02/13 00:45:51;;;;;;;25.77;17.87;;;11.40;99.90;;;;;;5053403;28;20199;-68
2023/02/13 00:48:16;;;;;;;23.63;19.80;;;11.50;99.90;;;;;;5052346;28;20185;-68
2023/02/13 00:50:42;;;;;;;24.20;19.60;;;11.50;99.90;;;;;;5054344;28;20415;-68
2023/02/13 00:53:08;;;;;;;11.20;10.00;;;11.50;99.90;;;;;;5052035;28;20187;-76
2023/02/13 00:55:34;;;;;;;10.93;9.87;;;11.50;99.90;;;;;;5052610;28;20182;-68
2023/02/13 00:58:00;;;;;;;11.30;9.13;;;11.50;99.90;;;;;;5053811;28;20772;-67
2023/02/13 01:00:26;;;;;;;11.00;9.37;;;11.30;99.90;;;;;;5052021;28;20503;-67
2023/02/13 01:02:52;;;;;;;9.40;8.37;;;11.20;99.90;;;;;;5050625;28;20526;-67
2023/02/13 01:05:17;;;;;;;10.20;8.20;;;11.30;99.90;;;;;;5034351;28;20541;-68
2023/02/13 01:07:43;;;;;;;10.60;7.83;;;11.20;99.90;;;;;;5035991;28;20186;-68
2023/02/13 01:10:09;;;;;;;10.67;8.93;;;11.30;99.90;;;;;;5052072;28;20275;-76
2023/02/13 01:12:35;;;;;;;8.67;7.77;;;11.30;99.90;;;;;;5051023;28;20189;-68
2023/02/13 01:15:01;;;;;;;8.13;7.33;;;11.40;99.90;;;;;;5053786;28;20463;-68
2023/02/13 01:17:27;;;;;;;9.67;8.33;;;11.30;99.90;;;;;;5050686;28;20225;-68
2023/02/13 01:19:53;;;;;;;7.90;7.20;;;11.30;99.90;;;;;;5052201;28;20451;-68
2023/02/13 01:22:18;;;;;;;9.10;7.43;;;11.30;99.90;;;;;;5052978;28;20236;-68
2023/02/13 01:24:44;;;;;;;7.47;6.77;;;11.30;99.90;;;;;;5052316;28;20784;-67
2023/02/13 01:27:10;;;;;;;7.10;6.40;;;11.40;99.90;;;;;;5051565;28;20177;-76
2023/02/13 01:29:35;;;;;;;7.50;6.80;;;11.40;99.90;;;;;;5053174;28;20180;-68
2023/02/13 01:32:03;;;;;;;8.40;7.57;;;11.40;99.90;;;;;;5049902;28;20693;-68
2023/02/13 01:34:31;;;;;;;7.00;6.40;;;11.40;99.90;;;;;;5051420;28;20327;-68
2023/02/13 01:36:56;;;;;;;7.67;6.87;;;11.40;99.90;;;;;;5035034;28;20810;-68
2023/02/13 01:39:22;;;;;;;7.60;6.90;;;11.50;99.90;;;;;;5049831;28;22309;-67
2023/02/13 01:41:48;;;;;;;8.17;6.80;;;11.40;99.90;;;;;;5051972;28;20312;-68
2023/02/13 01:44:52;;;;;;;7.73;6.87;;;11.20;99.90;;;;;;5052562;28;20266;-76
2023/02/13 01:48:03;;;;;;;6.53;5.90;;;11.20;99.90;;;;;;5032294;28;20701;-68
2023/02/13 01:50:39;;;;;;;6.57;5.80;;;11.10;99.90;;;;;;5029321;28;20422;-67
2023/02/13 01:53:34;;;;;;;6.27;5.77;;;11.00;99.90;;;;;;5041904;28;20429;-68
2023/02/13 01:56:18;;;;;;;6.70;6.10;;;11.00;99.90;;;;;;5048867;28;20419;-68
2023/02/13 01:58:47;;;;;;;8.23;6.80;;;11.00;99.90;;;;;;5053137;28;20457;-68
2023/02/13 02:01:16;;;;;;;6.40;5.80;;;10.80;99.90;;;;;;5049555;28;20429;-69
2023/02/13 02:03:49;;;;;;;6.47;5.87;;;10.80;99.90;;;;;;5039863;28;20931;-67
2023/02/13 02:06:22;;;;;;;7.30;6.60;;;10.80;99.90;;;;;;5050535;28;20776;-76
2023/02/13 02:08:51;;;;;;;6.90;6.30;;;10.70;99.90;;;;;;5033016;28;20415;-68
2023/02/13 02:11:29;;;;;;;7.97;7.17;;;10.60;99.90;;;;;;5044519;28;20970;-68
2023/02/13 02:13:56;;;;;;;7.83;7.00;;;10.70;99.90;;;;;;5011646;28;20436;-67
2023/02/13 02:16:23;;;;;;;7.83;7.10;;;10.60;99.90;;;;;;5032016;28;20798;-67
2023/02/13 02:18:49;;;;;;;7.30;6.60;;;10.40;99.90;;;;;;5046206;28;20541;-68
2023/02/13 02:21:31;;;;;;;7.67;6.97;;;10.50;99.90;;;;;;5048612;28;20860;-75
2023/02/13 02:24:11;;;;;;;7.87;7.17;;;10.70;99.90;;;;;;5051448;28;20613;-70
2023/02/13 02:26:58;;;;;;;7.83;7.07;;;10.70;99.90;;;;;;5032271;28;20453;-67
2023/02/13 02:29:48;;;;;;;7.93;7.17;;;10.60;99.90;;;;;;5049840;28;20435;-68
2023/02/13 02:32:45;;;;;;;7.67;7.07;;;10.70;99.90;;;;;;5050890;28;20431;-75
2023/02/13 02:35:13;;;;;;;6.57;6.03;;;10.50;99.90;;;;;;5049161;28;20460;-67
2023/02/13 02:37:59;;;;;;;6.97;6.30;;;10.40;99.90;;;;;;5051798;28;20455;-67
2023/02/13 02:40:54;;;;;;;5.80;5.30;;;10.30;99.90;;;;;;5051535;28;20523;-67
2023/02/13 02:43:28;;;;;;;6.50;5.90;;;10.30;99.90;;;;;;5050271;28;20522;-68
2023/02/13 02:46:07;;;;;;;5.30;4.90;;;10.30;99.90;;;;;;5050991;28;20437;-67
2023/02/13 02:52:04;;;;;;;5.50;5.00;;;10.10;99.90;;;;;;4989878;28;20526;-67
2023/02/13 03:06:09;;;;;;;5.60;5.10;;;10.30;99.90;;;;;;5048073;28;20464;-67
2023/02/13 03:14:07;;;;;;;5.37;4.87;;;10.40;99.90;;;;;;5057547;28;20464;-67
2023/02/13 03:22:30;;;;;;;5.10;4.70;;;10.50;99.90;;;;;;5056595;28;20434;-67
2023/02/13 03:25:17;;;;;;;4.20;3.90;;;10.60;99.90;;;;;;5057358;28;20433;-68
2023/02/13 03:31:12;;;;;;;5.10;4.60;;;10.70;99.90;;;;;;5056583;28;20949;-67
2023/02/13 03:33:55;;;;;;;5.33;4.83;;;10.70;99.90;;;;;;5056450;28;21069;-67
2023/02/13 03:40:07;;;;;;;5.20;4.70;;;10.40;99.90;;;;;;5057193;28;20446;-67
2023/02/13 03:43:07;;;;;;;6.30;5.63;;;10.40;99.90;;;;;;5046213;28;20474;-67
2023/02/13 03:45:53;;;;;;;6.30;5.70;;;10.30;99.90;;;;;;5042901;28;20495;-67
2023/02/13 03:51:11;;;;;;;6.50;5.90;;;10.20;99.90;;;;;;5037841;28;20403;-68
2023/02/13 03:53:41;;;;;;;6.80;6.23;;;10.20;99.90;;;;;;5037463;28;20525;-68
2023/02/13 04:01:47;;;;;;;6.00;5.50;;;10.50;99.90;;;;;;5037523;28;20396;-68
2023/02/13 04:04:47;;;;;;;6.10;5.60;;;10.50;99.90;;;;;;5055946;28;20528;-68
2023/02/13 04:07:28;;;;;;;5.83;5.10;;;10.50;99.90;;;;;;5024840;28;20482;-68
2023/02/13 04:10:00;;;;;;;6.30;5.70;;;10.50;99.90;;;;;;5037760;28;20449;-67
2023/02/13 04:12:40;;;;;;;6.53;5.93;;;10.50;99.90;;;;;;5036729;28;20936;-68
2023/02/13 04:15:14;;;;;;;8.30;7.60;;;10.30;99.90;;;;;;5035340;28;20406;-68
2023/02/13 04:17:46;;;;;;;7.07;6.47;;;10.10;99.90;;;;;;5034280;28;20916;-68
2023/02/13 04:20:12;;;;;;;6.83;6.23;;;10.10;99.90;;;;;;5013818;28;20437;-67
2023/02/13 04:22:45;;;;;;;6.97;6.33;;;10.00;99.90;;;;;;5040081;28;20444;-68
2023/02/13 04:25:14;;;;;;;6.77;6.17;;;9.80;99.90;;;;;;5050479;28;20440;-67
2023/02/13 04:27:40;;;;;;;7.13;6.43;;;9.80;99.90;;;;;;5053079;28;20441;-67
2023/02/13 04:30:07;;;;;;;8.17;7.37;;;9.80;99.90;;;;;;5053561;28;20440;-67
2023/02/13 04:32:33;;;;;;;7.33;6.53;;;9.90;99.90;;;;;;5052597;28;20446;-67
2023/02/13 04:35:01;;;;;;;8.40;6.47;;;9.90;99.90;;;;;;5053110;28;20428;-67
2023/02/13 04:37:27;;;;;;;7.50;6.67;;;10.00;99.90;;;;;;5042447;28;20954;-72
2023/02/13 04:39:53;;;;;;;8.30;6.90;;;10.00;99.90;;;;;;5022064;28;20191;-68
2023/02/13 04:42:18;;;;;;;8.70;7.30;;;10.00;99.90;;;;;;5047876;28;20237;-68
2023/02/13 04:44:44;;;;;;;8.03;6.70;;;9.90;99.90;;;;;;5051483;28;20183;-68
2023/02/13 04:47:10;;;;;;;8.40;6.47;;;10.00;99.90;;;;;;5054091;28;20175;-68
2023/02/13 04:49:35;;;;;;;6.90;6.23;;;10.00;99.90;;;;;;5052005;28;20275;-68
2023/02/13 04:52:01;;;;;;;7.80;6.20;;;10.10;99.90;;;;;;5053291;28;20578;-68
2023/02/13 04:54:27;;;;;;;7.57;6.20;;;10.20;99.90;;;;;;5045194;28;20210;-68
2023/02/13 04:56:53;;;;;;;8.03;6.53;;;10.30;99.90;;;;;;5050502;28;20436;-67
2023/02/13 04:59:18;;;;;;;6.97;6.27;;;10.40;99.90;;;;;;5053248;28;20214;-68
2023/02/13 05:01:44;;;;;;;7.50;6.90;;;10.50;99.90;;;;;;5041645;28;20207;-68
2023/02/13 05:04:14;;;;;;;8.03;7.23;;;10.60;99.90;;;;;;5038317;28;20634;-68
2023/02/13 05:06:41;;;;;;;7.47;6.77;;;10.60;99.90;;;;;;5039209;28;20217;-68
2023/02/13 05:09:07;;;;;;;6.53;5.93;;;10.70;99.90;;;;;;5036006;28;20433;-68
2023/02/13 05:11:32;;;;;;;6.80;6.20;;;10.80;99.90;;;;;;5040324;28;20523;-67
2023/02/13 05:13:58;;;;;;;6.40;5.80;;;10.70;99.90;;;;;;5033827;28;20582;-67
2023/02/13 05:16:24;;;;;;;6.20;5.60;;;10.70;99.90;;;;;;5033709;28;20177;-80
2023/02/13 05:18:53;;;;;;;7.27;6.10;;;10.80;99.90;;;;;;5048957;28;20263;-68
2023/02/13 05:24:05;;;;;;;7.33;6.60;;;10.80;99.90;;;;;;5034440;28;20396;-67
2023/02/13 05:26:31;;;;;;;6.87;6.27;;;10.80;99.90;;;;;;5052548;28;20502;-68
2023/02/13 05:31:41;;;;;;;6.30;5.63;;;10.80;99.90;;;;;;5035368;28;20442;-67
2023/02/13 05:34:06;;;;;;;7.00;6.30;;;10.70;99.90;;;;;;5053692;28;20412;-67
2023/02/13 05:36:32;;;;;;;7.27;6.53;;;10.70;99.90;;;;;;5037820;28;20642;-68
2023/02/13 05:38:58;;;;;;;6.43;5.83;;;10.70;99.90;;;;;;5035885;28;20220;-67
2023/02/13 05:41:23;;;;;;;8.60;7.30;;;10.80;99.90;;;;;;5053438;28;20256;-81
2023/02/13 05:43:49;;;;;;;7.47;6.30;;;10.70;99.90;;;;;;5023325;28;20179;-67
2023/02/13 05:46:15;;;;;;;9.10;7.10;;;10.40;99.90;;;;;;5037098;28;20214;-67
2023/02/13 05:48:40;;;;;;;7.30;6.60;;;10.30;99.90;;;;;;5052530;28;20294;-67
2023/02/13 05:51:06;;;;;;;10.43;9.30;;;10.30;99.90;;;;;;5017626;28;20186;-68
2023/02/13 05:53:35;;;;;;;7.00;6.30;;;10.30;99.90;;;;;;5041830;28;20181;-67
2023/02/13 05:56:03;;;;;;;6.43;5.90;;;10.30;99.90;;;;;;5051375;28;20503;-67
2023/02/13 05:58:29;;;;;;;9.97;8.40;;;10.40;99.90;;;;;;5052212;28;20553;-73
2023/02/13 06:00:59;;;;;;;9.00;7.03;;;10.30;99.90;;;;;;5052117;28;20531;-67
2023/02/13 06:03:26;;;;;;;9.50;8.00;;;10.20;99.90;;;;;;5051784;28;20308;-79
2023/02/13 06:05:53;;;;;;;9.43;7.50;;;10.30;99.90;;;;;;5052731;28;20417;-67
2023/02/13 06:08:20;;;;;;;11.30;8.77;;;10.40;99.90;;;;;;5051743;28;20793;-67
2023/02/13 06:10:47;;;;;;;9.70;8.63;;;10.40;99.90;;;;;;5049048;28;20438;-67
2023/02/13 06:13:13;;;;;;;7.90;7.10;;;10.40;99.90;;;;;;5033890;28;20779;-67
2023/02/13 06:15:39;;;;;;;8.40;7.60;;;10.40;99.90;;;;;;5018737;28;21048;-67
2023/02/13 06:18:05;;;;;;;8.87;6.67;;;10.40;99.90;;;;;;5046500;28;20472;-67
2023/02/13 06:20:30;;;;;;;7.60;6.90;;;10.40;99.90;;;;;;5050721;28;20922;-69
2023/02/13 06:22:56;;;;;;;7.63;6.83;;;10.40;99.90;;;;;;5048446;28;20196;-67
2023/02/13 06:25:22;;;;;;;7.57;6.87;;;10.30;99.90;;;;;;5049631;28;20188;-67
2023/02/13 06:27:48;;;;;;;9.60;7.70;;;10.30;99.90;;;;;;5033173;28;20191;-69
2023/02/13 06:30:15;;;;;;;6.57;5.93;;;10.20;99.90;;;;;;5050092;28;20178;-67
2023/02/13 06:32:41;;;;;;;7.90;6.70;;;10.30;99.90;;;;;;5039318;28;20486;-67
2023/02/13 06:35:07;;;;;;;8.50;7.60;;;10.30;99.90;;;;;;5048658;28;20489;-67
2023/02/13 06:37:33;;;;;;;6.77;6.17;;;10.30;99.90;;;;;;5014021;28;20480;-67
2023/02/13 06:40:00;;;;;;;7.33;6.53;;;10.20;99.90;;;;;;5047928;28;20437;-67
2023/02/13 06:42:25;;;;;;;6.70;6.00;;;10.20;99.90;;;;;;5050935;28;20987;-67
2023/02/13 06:44:51;;;;;;;7.17;6.47;;;10.10;99.90;;;;;;5033270;28;20429;-67
2023/02/13 06:47:19;;;;;;;9.00;7.67;;;10.10;99.90;;;;;;5051166;28;20446;-67
2023/02/13 06:49:45;;;;;;;7.80;6.73;;;10.10;99.90;;;;;;5025648;28;20191;-67
2023/02/13 06:52:10;;;;;;;7.50;6.70;;;10.10;99.90;;;;;;5032659;28;20494;-67
2023/02/13 06:54:36;;;;;;;9.10;8.20;;;10.00;99.90;;;;;;5045736;28;20638;-67
2023/02/13 06:57:04;;;;;;;8.23;6.93;;;10.00;99.90;;;;;;5051195;28;20215;-67
2023/02/13 06:59:30;;;;;;;9.03;8.13;;;10.00;99.90;;;;;;5050823;28;20191;-68
2023/02/13 07:01:55;;;;;;;8.10;7.40;;;10.00;99.90;;;;;;5041887;28;20489;-67
2023/02/13 07:04:21;;;;;;;8.57;7.10;;;10.00;99.90;;;;;;5021344;28;20336;-70
2023/02/13 07:06:47;;;;;;;8.20;6.70;;;9.90;99.90;;;;;;5001348;28;20280;-70
2023/02/13 07:09:12;;;;;;;8.33;6.80;;;9.90;99.90;;;;;;5046016;28;20202;-76
2023/02/13 07:11:38;;;;;;;7.60;6.90;;;10.00;99.90;;;;;;5043490;28;20647;-70
2023/02/13 07:14:08;;;;;;;9.17;8.17;;;10.20;99.90;;;;;;5049976;28;20532;-71
2023/02/13 07:16:34;;;;;;;9.20;8.25;;;10.70;99.90;;;;;;5049295;28;20433;-70
2023/02/13 07:19:00;;;;;;;12.70;7.40;;;11.10;99.90;;;;;;5049075;28;20564;-70
2023/02/13 07:21:25;;;;;;;7.27;6.57;;;11.30;99.90;;;;;;5031668;28;20437;-67
2023/02/13 07:23:51;;;;;;;7.53;6.73;;;11.20;99.90;;;;;;5036248;28;20644;-76
2023/02/13 07:26:17;;;;;;;7.23;6.30;;;11.10;99.90;;;;;;5016769;28;20209;-67
2023/02/13 07:28:43;;;;;;;6.97;6.20;;;11.00;99.90;;;;;;5026749;28;20474;-68
2023/02/13 07:31:09;;;;;;;8.20;7.30;;;10.90;99.90;;;;;;5047147;28;20473;-67
2023/02/13 07:33:35;;;;;;;9.40;7.27;;;10.70;99.90;;;;;;5051491;28;20203;-67
2023/02/13 07:36:02;;;;;;;8.13;7.20;;;10.60;99.90;;;;;;5037894;28;20463;-67
2023/02/13 07:38:29;;;;;;;9.17;7.20;;;10.50;99.90;;;;;;5044182;28;21042;-67
2023/02/13 07:40:59;;;;;;;8.27;7.23;;;10.50;99.90;;;;;;5041087;28;20477;-67
2023/02/13 07:43:25;;;;;;;8.20;7.37;;;10.40;99.90;;;;;;5031380;28;20483;-69
2023/02/13 07:45:54;;;;;;;8.50;7.33;;;10.40;99.90;;;;;;5049998;28;20924;-67
2023/02/13 07:48:23;;;;;;;8.73;7.13;;;10.40;99.90;;;;;;5048407;28;20590;-73
2023/02/13 07:50:49;;;;;;;8.43;6.77;;;10.40;99.90;;;;;;5044599;28;20452;-69
2023/02/13 07:53:14;;;;;;;8.70;7.87;;;10.40;99.90;;;;;;5022024;28;20468;-67
2023/02/13 07:55:40;;;;;;;7.90;7.10;;;10.40;99.90;;;;;;5033785;28;20429;-67
2023/02/13 07:58:06;;;;;;;11.30;8.87;;;10.40;99.90;;;;;;5043973;28;20210;-67
2023/02/13 08:00:32;;;;;;;9.40;6.73;;;10.40;99.90;;;;;;5024101;28;20938;-81
2023/02/13 08:02:59;;;;;;;7.40;6.70;;;10.40;99.90;;;;;;5026556;28;20190;-67
2023/02/13 08:05:24;;;;;;;7.13;6.43;;;10.50;99.90;;;;;;5026086;28;20182;-67
2023/02/13 08:07:51;;;;;;;6.93;6.23;;;10.40;99.90;;;;;;5020584;28;20523;-72
2023/02/13 08:13:01;;;;;;;9.87;8.87;;;10.50;99.90;;;;;;5039566;28;20486;-68
2023/02/13 08:15:27;;;;;;;8.70;7.80;;;10.40;99.90;;;;;;5045976;28;20743;-68
2023/02/13 08:17:52;;;;;;;8.47;7.30;;;10.40;99.90;;;;;;5041145;28;20478;-78
2023/02/13 08:20:18;;;;;;;10.87;8.60;;;10.40;99.90;;;;;;5039245;28;20213;-77
2023/02/13 08:22:44;;;;;;;9.50;8.50;;;10.50;99.90;;;;;;5044113;28;20177;-68
2023/02/13 08:25:10;;;;;;;9.93;8.07;;;10.50;99.90;;;;;;5045685;28;20441;-69
2023/02/13 08:27:36;;;;;;;9.57;8.03;;;10.50;99.90;;;;;;5041517;28;20190;-69
2023/02/13 08:30:02;;;;;;;8.63;7.83;;;10.50;99.90;;;;;;5046486;28;20257;-68
2023/02/13 08:32:28;;;;;;;9.60;8.53;;;10.60;99.90;;;;;;5039451;28;20252;-69
2023/02/13 08:34:54;;;;;;;10.30;8.93;;;10.70;99.90;;;;;;5024371;28;20470;-73
2023/02/13 08:37:20;;;;;;;11.27;8.43;;;10.80;99.90;;;;;;5041982;28;20212;-69
2023/02/13 08:39:45;;;;;;;9.03;7.53;;;10.80;99.90;;;;;;5043689;28;20294;-69
2023/02/13 08:42:11;;;;;;;9.47;7.73;;;10.80;99.90;;;;;;5043043;28;20699;-68
2023/02/13 08:44:39;;;;;;;9.57;8.07;;;10.90;99.90;;;;;;5044282;28;20182;-69
2023/02/13 08:47:06;;;;;;;9.27;8.27;;;10.90;99.90;;;;;;5042760;28;20176;-69
2023/02/13 08:49:32;;;;;;;9.47;8.43;;;11.00;99.90;;;;;;5043839;28;20426;-69
2023/02/13 08:52:00;;;;;;;8.67;7.13;;;11.10;99.90;;;;;;5040910;28;20517;-68
2023/02/13 08:54:26;;;;;;;8.83;7.63;;;11.20;99.90;;;;;;5008813;28;20791;-68
2023/02/13 08:56:53;;;;;;;9.03;7.90;;;11.20;99.90;;;;;;5042666;28;20416;-68
2023/02/13 08:59:19;;;;;;;8.57;7.70;;;11.20;99.90;;;;;;5040543;28;20431;-69
2023/02/13 09:01:45;;;;;;;12.80;11.13;;;11.20;99.90;;;;;;5038849;28;20941;-69
2023/02/13 09:04:10;;;;;;;10.10;8.57;;;11.30;99.90;;;;;;5042960;28;20789;-68
2023/02/13 09:06:36;;;;;;;12.47;10.80;;;11.30;99.90;;;;;;5046753;28;20177;-78
2023/02/13 09:09:04;;;;;;;18.03;14.03;;;11.30;99.90;;;;;;5043433;28;20564;-72
2023/02/13 09:11:30;;;;;;;11.87;10.10;;;11.70;99.90;;;;;;5043163;28;20443;-71
2023/02/13 09:13:55;;;;;;;11.83;10.57;;;12.30;99.90;;;;;;5023497;28;20442;-72
2023/02/13 09:16:21;;;;;;;14.90;11.20;;;12.80;99.90;;;;;;5041753;28;20187;-72
2023/02/13 09:18:48;;;;;;;12.47;11.10;;;13.40;99.90;;;;;;5042677;28;20698;-71
2023/02/13 09:21:15;;;;;;;156.70;102.60;;;13.80;99.90;;;;;;5042548;28;20665;-71
2023/02/13 09:23:41;;;;;;;421.93;280.57;;;14.30;99.90;;;;;;5043011;28;20424;-74
2023/02/13 09:26:12;;;;;;;33.83;27.30;;;14.70;99.90;;;;;;5026833;28;20441;-71
2023/02/13 09:28:39;;;;;;;76.60;50.50;;;15.10;99.90;;;;;;5025865;28;20271;-73
2023/02/13 09:31:07;;;;;;;410.47;285.57;;;15.40;99.90;;;;;;5020978;28;20431;-71
2023/02/13 09:33:33;;;;;;;33.07;25.23;;;15.80;99.90;;;;;;5046516;28;20485;-74
2023/02/13 09:36:04;;;;;;;10.20;9.20;;;16.10;99.90;;;;;;5043289;28;20844;-73
2023/02/13 09:38:30;;;;;;;9.90;8.90;;;16.40;97.50;;;;;;5041734;28;20542;-71
2023/02/13 09:41:02;;;;;;;10.60;9.60;;;16.60;96.10;;;;;;5043155;28;20563;-73
2023/02/13 09:43:33;;;;;;;9.30;8.40;;;16.80;95.80;;;;;;5024516;28;20194;-72
2023/02/13 09:46:09;;;;;;;13.90;12.37;;;17.00;95.80;;;;;;5040361;28;20869;-72
2023/02/13 09:48:38;;;;;;;10.70;8.93;;;17.20;94.70;;;;;;5045435;28;20424;-71
2023/02/13 09:51:04;;;;;;;11.20;10.20;;;17.40;94.00;;;;;;5041745;28;20842;-70
2023/02/13 09:53:35;;;;;;;11.23;10.20;;;17.60;92.10;;;;;;5042875;28;20412;-71
2023/02/13 09:56:03;;;;;;;16.67;12.50;;;17.70;92.00;;;;;;5023345;28;20428;-71
2023/02/13 09:58:46;;;;;;;13.13;11.10;;;17.90;95.20;;;;;;5040646;28;20825;-71
2023/02/13 10:01:20;;;;;;;9.30;8.50;;;18.00;93.50;;;;;;5042654;28;20432;-71
2023/02/13 10:04:01;;;;;;;14.93;13.43;;;18.10;90.50;;;;;;5023685;28;20436;-73
2023/02/13 10:06:48;;;;;;;10.80;9.70;;;18.20;90.40;;;;;;5047988;28;20932;-73
2023/02/13 10:09:35;;;;;;;11.37;9.10;;;18.20;92.00;;;;;;5038436;28;20475;-71
2023/02/13 10:12:13;;;;;;;10.00;9.10;;;18.30;92.00;;;;;;5025654;28;20502;-72
2023/02/13 10:15:13;;;;;;;10.57;9.50;;;18.40;91.80;;;;;;5039865;28;20471;-71
2023/02/13 10:17:43;;;;;;;10.27;9.37;;;18.50;90.20;;;;;;4996796;28;20460;-71
2023/02/13 10:20:32;;;;;;;9.83;8.93;;;18.60;85.80;;;;;;5040020;28;20498;-71
2023/02/13 10:23:11;;;;;;;10.20;9.20;;;18.60;85.80;;;;;;5021163;28;20440;-71
2023/02/13 10:25:50;;;;;;;9.27;8.13;;;18.60;86.20;;;;;;5040728;28;20464;-72
2023/02/13 10:28:26;;;;;;;8.73;7.93;;;18.60;85.70;;;;;;5042291;28;20432;-72
2023/02/13 10:30:57;;;;;;;9.90;9.00;;;18.80;84.90;;;;;;5041467;28;20412;-73
2023/02/13 10:33:30;;;;;;;9.97;8.97;;;18.80;87.40;;;;;;5042032;28;20437;-73
2023/02/13 10:36:08;;;;;;;10.30;9.40;;;19.00;85.00;;;;;;5042113;28;20493;-76
2023/02/13 10:38:47;;;;;;;11.33;10.23;;;19.20;88.50;;;;;;5020015;28;20551;-76
2023/02/13 10:41:40;;;;;;;19.97;17.77;;;19.30;86.80;;;;;;5032815;28;20506;-76
2023/02/13 10:44:19;;;;;;;24.97;22.37;;;19.60;85.00;;;;;;5044487;28;20447;-76
2023/02/13 10:46:57;;;;;;;279.90;176.23;;;19.90;83.40;;;;;;5039844;28;20428;-76
2023/02/13 10:49:40;;;;;;;53.50;39.83;;;20.10;84.10;;;;;;5041864;28;20469;-76
2023/02/13 10:52:25;;;;;;;13.60;12.20;;;20.30;82.00;;;;;;5038097;28;21002;-75
2023/02/13 10:55:28;;;;;;;12.90;11.13;;;20.50;77.30;;;;;;5033391;28;20508;-75
2023/02/13 10:58:12;;;;;;;14.20;11.53;;;20.80;80.20;;;;;;5024161;28;20467;-75
2023/02/13 11:00:45;;;;;;;9.60;8.10;;;20.80;80.30;;;;;;5041454;28;20417;-75
2023/02/13 11:03:22;;;;;;;9.10;8.10;;;20.80;73.30;;;;;;5041837;28;20420;-75
2023/02/13 11:05:49;;;;;;;9.00;8.20;;;20.50;72.00;;;;;;5042741;28;20428;-75
2023/02/13 11:08:25;;;;;;;9.87;8.50;;;20.50;75.70;;;;;;5022050;28;20439;-75
2023/02/13 11:10:51;;;;;;;20.30;17.73;;;20.60;75.60;;;;;;5041673;28;20432;-75
2023/02/13 11:13:20;;;;;;;37.97;30.20;;;20.80;76.90;;;;;;5042092;28;20446;-75
2023/02/13 11:16:12;;;;;;;11.83;10.13;;;21.00;74.60;;;;;;5040204;28;20433;-75
2023/02/13 11:18:48;;;;;;;9.17;8.30;;;21.10;71.80;;;;;;5019654;28;20464;-75
2023/02/13 11:21:31;;;;;;;18.63;16.73;;;21.20;71.40;;;;;;5037257;28;20450;-75
2023/02/13 11:23:56;;;;;;;10.50;9.47;;;21.20;72.00;;;;;;5040162;28;20428;-77
2023/02/13 11:26:25;;;;;;;14.70;13.20;;;21.20;70.30;;;;;;5028405;28;20435;-75
2023/02/13 11:28:57;;;;;;;8.33;7.63;;;21.20;72.90;;;;;;5043969;28;20197;-76
2023/02/13 11:31:32;;;;;;;8.70;7.60;;;21.30;71.00;;;;;;5044376;28;20416;-77
2023/02/13 11:34:16;;;;;;;9.80;8.90;;;21.30;71.10;;;;;;5046144;28;20432;-76
2023/02/13 11:36:42;;;;;;;10.60;9.60;;;21.50;72.20;;;;;;5043725;28;20419;-76
2023/02/13 11:39:20;;;;;;;10.13;9.33;;;21.60;70.80;;;;;;5042457;28;20476;-73
2023/02/13 11:41:49;;;;;;;12.43;11.23;;;21.80;72.30;;;;;;5042769;28;20225;-74
2023/02/13 11:44:25;;;;;;;306.47;213.20;;;21.70;72.20;;;;;;5048587;28;20423;-69
2023/02/13 11:46:54;;;;;;;40.47;30.53;;;21.70;67.60;;;;;;5048739;28;20401;-69
2023/02/13 11:49:26;;;;;;;9.43;8.70;;;21.40;66.00;;;;;;5044340;28;20432;-69
2023/02/13 11:51:58;;;;;;;7.70;7.10;;;21.20;68.00;;;;;;5026652;28;20411;-68
2023/02/13 11:54:38;;;;;;;8.33;7.63;;;21.20;70.10;;;;;;5043639;28;20559;-70
2023/02/13 11:57:37;;;;;;;10.20;9.23;;;21.10;70.00;;;;;;5042366;28;20518;-69
2023/02/13 12:00:38;;;;;;;8.87;8.07;;;20.90;68.20;;;;;;5042886;28;20433;-69
2023/02/13 12:03:28;;;;;;;7.93;7.23;;;20.80;71.50;;;;;;5041904;28;20456;-70
2023/02/13 12:06:15;;;;;;;8.27;7.57;;;20.80;69.30;;;;;;5027367;28;20440;-71
2023/02/13 12:08:45;;;;;;;9.03;8.23;;;20.90;68.40;;;;;;5044374;28;20480;-69
2023/02/13 12:11:41;;;;;;;7.53;6.93;;;20.90;70.80;;;;;;5042670;28;20440;-69
2023/02/13 12:14:12;;;;;;;8.03;7.43;;;20.80;68.00;;;;;;5041978;28;20432;-69
2023/02/13 12:16:52;;;;;;;8.43;7.73;;;20.70;69.50;;;;;;5042383;28;20416;-69
2023/02/13 12:19:46;;;;;;;9.00;8.20;;;20.80;68.60;;;;;;5025650;28;20812;-68
2023/02/13 12:22:20;;;;;;;7.97;7.37;;;20.80;68.20;;;;;;5027670;28;20438;-69
2023/02/13 12:24:51;;;;;;;8.80;8.10;;;20.80;66.80;;;;;;5026528;28;20424;-68
2023/02/13 12:27:29;;;;;;;593.77;411.90;;;20.60;67.20;;;;;;5043741;28;20401;-69
2023/02/13 12:30:07;;;;;;;128.53;100.27;;;20.50;70.40;;;;;;5037115;28;20424;-68
2023/02/13 12:32:58;;;;;;;27.50;22.70;;;20.50;69.30;;;;;;5042869;28;20439;-69
2023/02/13 12:35:38;;;;;;;8.63;7.93;;;20.50;69.50;;;;;;5026126;28;20468;-70
2023/02/13 12:38:33;;;;;;;8.17;7.37;;;20.40;70.40;;;;;;5034995;28;20452;-69
2023/02/13 12:41:01;;;;;;;8.40;7.67;;;20.30;69.50;;;;;;5034250;28;20475;-68
2023/02/13 12:43:48;;;;;;;8.73;8.03;;;20.20;69.80;;;;;;5037903;28;20432;-69
2023/02/13 12:46:14;;;;;;;8.10;7.43;;;20.00;70.80;;;;;;5042646;28;20911;-69
2023/02/13 12:48:59;;;;;;;8.27;7.53;;;19.90;72.00;;;;;;5027224;28;20529;-66
2023/02/13 12:51:37;;;;;;;8.60;7.80;;;19.50;69.20;;;;;;5026352;28;20184;-68
2023/02/13 12:54:36;;;;;;;8.50;7.70;;;19.10;71.80;;;;;;5038423;28;20906;-71
2023/02/13 12:57:18;;;;;;;9.00;8.30;;;18.80;72.50;;;;;;5021465;28;20476;-69
2023/02/13 12:59:54;;;;;;;8.33;7.63;;;18.80;74.70;;;;;;5051545;28;20440;-67
2023/02/13 13:02:35;;;;;;;9.33;7.87;;;18.80;74.30;;;;;;5043324;28;20439;-68
2023/02/13 13:05:28;;;;;;;9.57;8.63;;;18.80;73.70;;;;;;5035035;28;20455;-68
2023/02/13 13:08:25;;;;;;;9.37;8.63;;;18.80;73.40;;;;;;5052685;28;20436;-69
2023/02/13 13:11:26;;;;;;;9.07;8.30;;;18.70;74.50;;;;;;5053128;28;20461;-70
2023/02/13 13:13:52;;;;;;;8.60;7.90;;;18.70;75.40;;;;;;5054188;28;20957;-69
2023/02/13 13:16:55;;;;;;;8.17;7.47;;;18.60;74.00;;;;;;5053248;28;20436;-68
2023/02/13 13:19:20;;;;;;;9.50;8.70;;;18.60;73.80;;;;;;5018953;28;20238;-67
2023/02/13 13:22:01;;;;;;;9.10;8.20;;;18.50;75.40;;;;;;5028322;28;20519;-68
2023/02/13 13:25:00;;;;;;;8.20;7.60;;;18.30;76.70;;;;;;5037423;28;20173;-69
2023/02/13 13:27:30;;;;;;;8.00;7.23;;;18.40;78.00;;;;;;5036410;28;20431;-68
2023/02/13 13:30:18;;;;;;;7.93;7.33;;;18.50;77.00;;;;;;5034810;28;20557;-69
2023/02/13 13:32:47;;;;;;;8.23;7.53;;;18.50;77.20;;;;;;5025574;28;20429;-68
2023/02/13 13:35:18;;;;;;;8.13;7.43;;;18.60;76.70;;;;;;5033323;28;20449;-81
2023/02/13 13:38:28;;;;;;;8.03;7.33;;;18.50;74.60;;;;;;5034171;28;20862;-68
2023/02/13 13:41:25;;;;;;;7.53;6.93;;;18.50;74.80;;;;;;4962605;28;20581;-69
2023/02/13 13:44:38;;;;;;;8.43;7.63;;;18.50;75.50;;;;;;5037194;28;20949;-68
2023/02/13 13:47:18;;;;;;;9.43;8.53;;;18.40;75.60;;;;;;5047491;28;20427;-69
2023/02/13 13:49:52;;;;;;;11.00;10.03;;;18.30;78.50;;;;;;5072697;28;20771;-68
2023/02/13 13:52:21;;;;;;;7.60;6.90;;;18.40;79.40;;;;;;5072632;28;20407;-68
2023/02/13 13:54:53;;;;;;;7.47;6.87;;;18.40;78.10;;;;;;5072412;28;20522;-68
2023/02/13 13:57:24;;;;;;;7.97;7.17;;;18.40;79.30;;;;;;5072380;28;20524;-67